sensor_id;sensor_type;location;lat;lon;timestamp;temperature;humidity
49413;DHT22;35493;50.276;9.372;2023-11-21T00:01:41;9.60;90.20
49413;DHT22;35493;50.276;9.372;2023-11-21T00:07:12;9.60;90.20
49413;DHT22;35493;50.276;9.372;2023-11-21T00:09:46;9.60;90.20
49413;DHT22;35493;50.276;9.372;2023-11-21T00:12:21;9.50;90.10
49413;DHT22;35493;50.276;9.372;2023-11-21T00:14:56;9.60;90.20
49413;DHT22;35493;50.276;9.372;2023-11-21T00:17:32;9.60;90.10
49413;DHT22;35493;50.276;9.372;2023-11-21T00:20:08;9.50;90.10
49413;DHT22;35493;50.276;9.372;2023-11-21T00:22:44;9.60;90.10
49413;DHT22;35493;50.276;9.372;2023-11-21T00:25:18;9.50;90.10
49413;DHT22;35493;50.276;9.372;2023-11-21T00:27:58;9.60;90.10
49413;DHT22;35493;50.276;9.372;2023-11-21T00:31:11;9.50;90.20
49413;DHT22;35493;50.276;9.372;2023-11-21T00:33:45;9.50;90.20
49413;DHT22;35493;50.276;9.372;2023-11-21T00:36:21;9.60;90.10
49413;DHT22;35493;50.276;9.372;2023-11-21T00:38:54;9.60;90.20
49413;DHT22;35493;50.276;9.372;2023-11-21T00:41:30;9.60;90.30
49413;DHT22;35493;50.276;9.372;2023-11-21T00:44:09;9.60;90.30
49413;DHT22;35493;50.276;9.372;2023-11-21T00:46:44;9.60;90.30
49413;DHT22;35493;50.276;9.372;2023-11-21T00:49:17;9.60;90.30
49413;DHT22;35493;50.276;9.372;2023-11-21T00:51:51;9.60;90.20
49413;DHT22;35493;50.276;9.372;2023-11-21T00:54:26;9.70;90.10
49413;DHT22;35493;50.276;9.372;2023-11-21T00:56:59;9.70;90.10
49413;DHT22;35493;50.276;9.372;2023-11-21T00:59:32;9.70;90.10
49413;DHT22;35493;50.276;9.372;2023-11-21T01:02:11;9.70;90.20
49413;DHT22;35493;50.276;9.372;2023-11-21T01:04:44;9.60;90.30
49413;DHT22;35493;50.276;9.372;2023-11-21T01:07:17;9.70;90.10
49413;DHT22;35493;50.276;9.372;2023-11-21T01:09:52;9.70;90.30
49413;DHT22;35493;50.276;9.372;2023-11-21T01:12:26;9.70;90.40
49413;DHT22;35493;50.276;9.372;2023-11-21T01:15:00;9.70;90.30
49413;DHT22;35493;50.276;9.372;2023-11-21T01:17:35;9.70;90.10
49413;DHT22;35493;50.276;9.372;2023-11-21T01:20:08;9.70;90.30
49413;DHT22;35493;50.276;9.372;2023-11-21T01:22:46;9.70;90.30
49413;DHT22;35493;50.276;9.372;2023-11-21T01:25:26;9.70;90.30
49413;DHT22;35493;50.276;9.372;2023-11-21T01:28:00;9.70;90.30
49413;DHT22;35493;50.276;9.372;2023-11-21T01:30:33;9.80;90.30
49413;DHT22;35493;50.276;9.372;2023-11-21T01:33:09;9.80;90.50
49413;DHT22;35493;50.276;9.372;2023-11-21T01:35:42;9.80;90.20
49413;DHT22;35493;50.276;9.372;2023-11-21T01:38:18;9.70;90.20
49413;DHT22;35493;50.276;9.372;2023-11-21T01:40:51;9.70;90.20
49413;DHT22;35493;50.276;9.372;2023-11-21T01:43:24;9.70;90.30
49413;DHT22;35493;50.276;9.372;2023-11-21T01:45:57;9.70;90.30
49413;DHT22;35493;50.276;9.372;2023-11-21T01:48:36;9.70;90.30
49413;DHT22;35493;50.276;9.372;2023-11-21T01:51:10;9.70;90.40
49413;DHT22;35493;50.276;9.372;2023-11-21T01:53:43;9.70;90.20
49413;DHT22;35493;50.276;9.372;2023-11-21T01:56:17;9.70;90.30
49413;DHT22;35493;50.276;9.372;2023-11-21T01:58:50;9.70;90.40
49413;DHT22;35493;50.276;9.372;2023-11-21T02:01:23;9.70;90.30
49413;DHT22;35493;50.276;9.372;2023-11-21T02:03:59;9.70;90.30
49413;DHT22;35493;50.276;9.372;2023-11-21T02:06:33;9.70;90.30
49413;DHT22;35493;50.276;9.372;2023-11-21T02:09:06;9.70;90.40
49413;DHT22;35493;50.276;9.372;2023-11-21T02:11:53;9.70;90.30
49413;DHT22;35493;50.276;9.372;2023-11-21T02:14:27;9.70;90.30
49413;DHT22;35493;50.276;9.372;2023-11-21T02:17:00;9.70;90.40
49413;DHT22;35493;50.276;9.372;2023-11-21T02:19:37;9.70;90.40
49413;DHT22;35493;50.276;9.372;2023-11-21T02:22:07;9.60;90.40
49413;DHT22;35493;50.276;9.372;2023-11-21T02:24:45;9.70;90.50
49413;DHT22;35493;50.276;9.372;2023-11-21T02:27:19;9.60;90.50
49413;DHT22;35493;50.276;9.372;2023-11-21T02:29:55;9.60;90.50
49413;DHT22;35493;50.276;9.372;2023-11-21T02:32:28;9.60;90.50
49413;DHT22;35493;50.276;9.372;2023-11-21T02:35:04;9.60;90.50
49413;DHT22;35493;50.276;9.372;2023-11-21T02:37:40;9.60;90.50
49413;DHT22;35493;50.276;9.372;2023-11-21T02:40:15;9.60;90.50
49413;DHT22;35493;50.276;9.372;2023-11-21T02:42:56;9.60;90.60
49413;DHT22;35493;50.276;9.372;2023-11-21T02:45:30;9.60;90.50
49413;DHT22;35493;50.276;9.372;2023-11-21T02:48:03;9.60;90.50
49413;DHT22;35493;50.276;9.372;2023-11-21T02:50:38;9.60;90.50
49413;DHT22;35493;50.276;9.372;2023-11-21T02:53:13;9.60;90.50
49413;DHT22;35493;50.276;9.372;2023-11-21T02:55:48;9.60;90.50
49413;DHT22;35493;50.276;9.372;2023-11-21T02:58:21;9.60;90.60
49413;DHT22;35493;50.276;9.372;2023-11-21T03:00:54;9.50;90.60
49413;DHT22;35493;50.276;9.372;2023-11-21T03:03:28;9.60;90.60
49413;DHT22;35493;50.276;9.372;2023-11-21T03:06:01;9.60;90.60
49413;DHT22;35493;50.276;9.372;2023-11-21T03:08:37;9.60;90.60
49413;DHT22;35493;50.276;9.372;2023-11-21T03:11:12;9.60;90.50
49413;DHT22;35493;50.276;9.372;2023-11-21T03:13:45;9.60;90.40
49413;DHT22;35493;50.276;9.372;2023-11-21T03:16:18;9.60;90.60
49413;DHT22;35493;50.276;9.372;2023-11-21T03:18:52;9.60;90.50
49413;DHT22;35493;50.276;9.372;2023-11-21T03:21:25;9.70;90.50
49413;DHT22;35493;50.276;9.372;2023-11-21T03:24:01;9.60;90.40
49413;DHT22;35493;50.276;9.372;2023-11-21T03:26:36;9.60;90.50
49413;DHT22;35493;50.276;9.372;2023-11-21T03:29:09;9.60;90.50
49413;DHT22;35493;50.276;9.372;2023-11-21T03:31:36;9.60;90.40
49413;DHT22;35493;50.276;9.372;2023-11-21T03:34:11;9.60;90.50
49413;DHT22;35493;50.276;9.372;2023-11-21T03:36:44;9.60;90.60
49413;DHT22;35493;50.276;9.372;2023-11-21T03:39:19;9.60;90.60
49413;DHT22;35493;50.276;9.372;2023-11-21T03:41:57;9.60;90.70
49413;DHT22;35493;50.276;9.372;2023-11-21T03:44:30;9.60;90.60
49413;DHT22;35493;50.276;9.372;2023-11-21T03:47:04;9.70;90.50
49413;DHT22;35493;50.276;9.372;2023-11-21T03:49:37;9.70;90.50
49413;DHT22;35493;50.276;9.372;2023-11-21T03:52:15;9.70;90.50
49413;DHT22;35493;50.276;9.372;2023-11-21T03:55:09;9.60;90.60
49413;DHT22;35493;50.276;9.372;2023-11-21T04:00:36;9.60;90.60
49413;DHT22;35493;50.276;9.372;2023-11-21T04:03:09;9.60;90.70
49413;DHT22;35493;50.276;9.372;2023-11-21T04:05:45;9.60;90.70
49413;DHT22;35493;50.276;9.372;2023-11-21T04:08:20;9.60;90.70
49413;DHT22;35493;50.276;9.372;2023-11-21T04:10:53;9.60;90.60
49413;DHT22;35493;50.276;9.372;2023-11-21T04:13:27;9.60;90.60
49413;DHT22;35493;50.276;9.372;2023-11-21T04:16:05;9.60;90.60
49413;DHT22;35493;50.276;9.372;2023-11-21T04:18:38;9.60;90.60
49413;DHT22;35493;50.276;9.372;2023-11-21T04:21:06;9.60;90.60
49413;DHT22;35493;50.276;9.372;2023-11-21T04:23:42;9.60;90.60
49413;DHT22;35493;50.276;9.372;2023-11-21T04:26:09;9.60;90.60
49413;DHT22;35493;50.276;9.372;2023-11-21T04:28:42;9.60;90.60
49413;DHT22;35493;50.276;9.372;2023-11-21T04:31:18;9.60;90.50
49413;DHT22;35493;50.276;9.372;2023-11-21T04:33:51;9.60;90.50
49413;DHT22;35493;50.276;9.372;2023-11-21T04:36:18;9.60;90.60
49413;DHT22;35493;50.276;9.372;2023-11-21T04:38:52;9.60;90.70
49413;DHT22;35493;50.276;9.372;2023-11-21T04:41:25;9.50;90.70
49413;DHT22;35493;50.276;9.372;2023-11-21T04:43:58;9.50;90.80
49413;DHT22;35493;50.276;9.372;2023-11-21T04:46:36;9.50;90.80
49413;DHT22;35493;50.276;9.372;2023-11-21T04:49:09;9.50;90.80
49413;DHT22;35493;50.276;9.372;2023-11-21T04:51:42;9.50;90.80
49413;DHT22;35493;50.276;9.372;2023-11-21T04:54:15;9.50;90.70
49413;DHT22;35493;50.276;9.372;2023-11-21T04:56:48;9.60;90.70
49413;DHT22;35493;50.276;9.372;2023-11-21T04:59:24;9.60;90.70
49413;DHT22;35493;50.276;9.372;2023-11-21T05:02:00;9.50;90.60
49413;DHT22;35493;50.276;9.372;2023-11-21T05:04:33;9.60;90.60
49413;DHT22;35493;50.276;9.372;2023-11-21T05:07:06;9.50;90.70
49413;DHT22;35493;50.276;9.372;2023-11-21T05:09:40;9.50;90.70
49413;DHT22;35493;50.276;9.372;2023-11-21T05:12:15;9.50;90.60
49413;DHT22;35493;50.276;9.372;2023-11-21T05:14:48;9.50;90.60
49413;DHT22;35493;50.276;9.372;2023-11-21T05:17:23;9.50;90.50
49413;DHT22;35493;50.276;9.372;2023-11-21T05:19:56;9.50;90.50
49413;DHT22;35493;50.276;9.372;2023-11-21T05:22:29;9.50;90.50
49413;DHT22;35493;50.276;9.372;2023-11-21T05:25:03;9.40;90.50
49413;DHT22;35493;50.276;9.372;2023-11-21T05:27:36;9.50;90.50
49413;DHT22;35493;50.276;9.372;2023-11-21T05:30:10;9.40;90.50
49413;DHT22;35493;50.276;9.372;2023-11-21T05:32:39;9.50;90.40
49413;DHT22;35493;50.276;9.372;2023-11-21T05:35:13;9.50;90.40
49413;DHT22;35493;50.276;9.372;2023-11-21T05:37:54;9.50;90.40
49413;DHT22;35493;50.276;9.372;2023-11-21T05:40:27;9.40;90.50
49413;DHT22;35493;50.276;9.372;2023-11-21T05:43:01;9.40;90.40
49413;DHT22;35493;50.276;9.372;2023-11-21T05:45:37;9.40;90.50
49413;DHT22;35493;50.276;9.372;2023-11-21T05:48:12;9.40;90.50
49413;DHT22;35493;50.276;9.372;2023-11-21T05:50:45;9.40;90.40
49413;DHT22;35493;50.276;9.372;2023-11-21T05:53:19;9.40;90.40
49413;DHT22;35493;50.276;9.372;2023-11-21T05:55:54;9.40;90.50
49413;DHT22;35493;50.276;9.372;2023-11-21T05:58:26;9.30;90.50
49413;DHT22;35493;50.276;9.372;2023-11-21T06:00:59;9.30;90.50
49413;DHT22;35493;50.276;9.372;2023-11-21T06:03:34;9.30;90.50
49413;DHT22;35493;50.276;9.372;2023-11-21T06:06:08;9.30;90.50
49413;DHT22;35493;50.276;9.372;2023-11-21T06:08:41;9.30;90.50
49413;DHT22;35493;50.276;9.372;2023-11-21T06:11:14;9.40;90.50
49413;DHT22;35493;50.276;9.372;2023-11-21T06:13:48;9.40;90.50
49413;DHT22;35493;50.276;9.372;2023-11-21T06:16:21;9.30;90.60
49413;DHT22;35493;50.276;9.372;2023-11-21T06:18:52;9.40;90.50
49413;DHT22;35493;50.276;9.372;2023-11-21T06:21:26;9.30;90.50
49413;DHT22;35493;50.276;9.372;2023-11-21T06:24:01;9.30;90.60
49413;DHT22;35493;50.276;9.372;2023-11-21T06:26:37;9.40;90.60
49413;DHT22;35493;50.276;9.372;2023-11-21T06:29:10;9.40;90.60
49413;DHT22;35493;50.276;9.372;2023-11-21T06:31:43;9.40;90.60
49413;DHT22;35493;50.276;9.372;2023-11-21T06:34:19;9.40;90.70
49413;DHT22;35493;50.276;9.372;2023-11-21T06:36:53;9.40;90.70
49413;DHT22;35493;50.276;9.372;2023-11-21T06:39:27;9.40;90.60
49413;DHT22;35493;50.276;9.372;2023-11-21T06:41:59;9.40;90.60
49413;DHT22;35493;50.276;9.372;2023-11-21T06:44:32;9.40;90.60
49413;DHT22;35493;50.276;9.372;2023-11-21T06:47:08;9.40;90.60
49413;DHT22;35493;50.276;9.372;2023-11-21T06:49:46;9.40;90.60
49413;DHT22;35493;50.276;9.372;2023-11-21T06:52:20;9.40;90.60
49413;DHT22;35493;50.276;9.372;2023-11-21T06:54:57;9.40;90.60
49413;DHT22;35493;50.276;9.372;2023-11-21T06:57:25;9.40;90.50
49413;DHT22;35493;50.276;9.372;2023-11-21T06:59:58;9.40;90.50
49413;DHT22;35493;50.276;9.372;2023-11-21T07:02:34;9.40;90.40
49413;DHT22;35493;50.276;9.372;2023-11-21T07:05:10;9.40;90.40
49413;DHT22;35493;50.276;9.372;2023-11-21T07:07:47;9.30;90.50
49413;DHT22;35493;50.276;9.372;2023-11-21T07:10:20;9.40;90.40
49413;DHT22;35493;50.276;9.372;2023-11-21T07:12:53;9.30;90.40
49413;DHT22;35493;50.276;9.372;2023-11-21T07:15:27;9.30;90.30
49413;DHT22;35493;50.276;9.372;2023-11-21T07:18:00;9.30;90.30
49413;DHT22;35493;50.276;9.372;2023-11-21T07:20:35;9.40;90.30
49413;DHT22;35493;50.276;9.372;2023-11-21T07:23:08;9.40;90.20
49413;DHT22;35493;50.276;9.372;2023-11-21T07:25:42;9.40;90.10
49413;DHT22;35493;50.276;9.372;2023-11-21T07:28:16;9.30;90.20
49413;DHT22;35493;50.276;9.372;2023-11-21T07:30:49;9.30;90.20
49413;DHT22;35493;50.276;9.372;2023-11-21T07:33:22;9.40;90.20
49413;DHT22;35493;50.276;9.372;2023-11-21T07:36:10;9.40;90.20
49413;DHT22;35493;50.276;9.372;2023-11-21T07:38:45;9.30;90.20
49413;DHT22;35493;50.276;9.372;2023-11-21T07:41:18;9.40;90.20
49413;DHT22;35493;50.276;9.372;2023-11-21T07:43:52;9.40;90.10
49413;DHT22;35493;50.276;9.372;2023-11-21T07:46:28;9.40;90.10
49413;DHT22;35493;50.276;9.372;2023-11-21T07:49:01;9.40;90.10
49413;DHT22;35493;50.276;9.372;2023-11-21T07:51:37;9.40;90.20
49413;DHT22;35493;50.276;9.372;2023-11-21T07:54:10;9.40;90.10
49413;DHT22;35493;50.276;9.372;2023-11-21T07:56:44;9.40;90.10
49413;DHT22;35493;50.276;9.372;2023-11-21T07:59:17;9.50;90.00
49413;DHT22;35493;50.276;9.372;2023-11-21T08:01:50;9.50;90.10
49413;DHT22;35493;50.276;9.372;2023-11-21T08:04:23;9.50;90.10
49413;DHT22;35493;50.276;9.372;2023-11-21T08:06:58;9.50;90.10
49413;DHT22;35493;50.276;9.372;2023-11-21T08:09:31;9.50;90.00
49413;DHT22;35493;50.276;9.372;2023-11-21T08:12:07;9.60;90.00
49413;DHT22;35493;50.276;9.372;2023-11-21T08:14:42;9.50;90.00
49413;DHT22;35493;50.276;9.372;2023-11-21T08:17:16;9.60;90.00
49413;DHT22;35493;50.276;9.372;2023-11-21T08:19:51;9.60;89.80
49413;DHT22;35493;50.276;9.372;2023-11-21T08:22:26;9.60;89.80
49413;DHT22;35493;50.276;9.372;2023-11-21T08:25:06;9.70;89.80
49413;DHT22;35493;50.276;9.372;2023-11-21T08:27:39;9.70;89.60
49413;DHT22;35493;50.276;9.372;2023-11-21T08:30:13;9.70;89.60
49413;DHT22;35493;50.276;9.372;2023-11-21T08:32:48;9.80;89.60
49413;DHT22;35493;50.276;9.372;2023-11-21T08:35:22;9.70;89.60
49413;DHT22;35493;50.276;9.372;2023-11-21T08:37:57;9.80;89.60
49413;DHT22;35493;50.276;9.372;2023-11-21T08:40:38;9.70;89.50
49413;DHT22;35493;50.276;9.372;2023-11-21T08:43:27;9.80;89.50
49413;DHT22;35493;50.276;9.372;2023-11-21T08:46:01;9.80;89.50
49413;DHT22;35493;50.276;9.372;2023-11-21T08:48:35;9.80;89.40
49413;DHT22;35493;50.276;9.372;2023-11-21T08:51:09;9.80;89.50
49413;DHT22;35493;50.276;9.372;2023-11-21T08:53:45;9.70;89.60
49413;DHT22;35493;50.276;9.372;2023-11-21T08:56:19;9.70;89.70
49413;DHT22;35493;50.276;9.372;2023-11-21T08:58:52;9.70;89.70
49413;DHT22;35493;50.276;9.372;2023-11-21T09:01:25;9.70;89.60
49413;DHT22;35493;50.276;9.372;2023-11-21T09:03:58;9.80;89.50
49413;DHT22;35493;50.276;9.372;2023-11-21T09:06:31;9.70;89.40
49413;DHT22;35493;50.276;9.372;2023-11-21T09:09:06;9.70;89.40
49413;DHT22;35493;50.276;9.372;2023-11-21T09:11:40;9.70;89.40
49413;DHT22;35493;50.276;9.372;2023-11-21T09:14:15;9.70;89.20
49413;DHT22;35493;50.276;9.372;2023-11-21T09:16:49;9.70;89.20
49413;DHT22;35493;50.276;9.372;2023-11-21T09:19:26;9.70;89.20
49413;DHT22;35493;50.276;9.372;2023-11-21T09:21:59;9.70;89.20
49413;DHT22;35493;50.276;9.372;2023-11-21T09:24:34;9.70;89.30
49413;DHT22;35493;50.276;9.372;2023-11-21T09:27:07;9.60;89.30
49413;DHT22;35493;50.276;9.372;2023-11-21T09:29:41;9.70;89.10
49413;DHT22;35493;50.276;9.372;2023-11-21T09:32:14;9.70;89.00
49413;DHT22;35493;50.276;9.372;2023-11-21T09:34:50;9.80;89.10
49413;DHT22;35493;50.276;9.372;2023-11-21T09:37:25;9.90;89.00
49413;DHT22;35493;50.276;9.372;2023-11-21T09:40:00;9.90;88.80
49413;DHT22;35493;50.276;9.372;2023-11-21T09:42:36;10.10;89.00
49413;DHT22;35493;50.276;9.372;2023-11-21T09:45:11;10.10;88.90
49413;DHT22;35493;50.276;9.372;2023-11-21T09:47:47;10.10;88.80
49413;DHT22;35493;50.276;9.372;2023-11-21T09:50:20;10.10;88.70
49413;DHT22;35493;50.276;9.372;2023-11-21T09:52:55;10.10;88.80
49413;DHT22;35493;50.276;9.372;2023-11-21T09:55:31;10.20;88.60
49413;DHT22;35493;50.276;9.372;2023-11-21T09:58:07;10.30;88.40
49413;DHT22;35493;50.276;9.372;2023-11-21T10:00:44;10.40;88.30
49413;DHT22;35493;50.276;9.372;2023-11-21T10:03:19;10.40;88.30
49413;DHT22;35493;50.276;9.372;2023-11-21T10:05:53;10.40;88.20
49413;DHT22;35493;50.276;9.372;2023-11-21T10:08:26;10.40;88.20
49413;DHT22;35493;50.276;9.372;2023-11-21T10:11:01;10.30;88.40
49413;DHT22;35493;50.276;9.372;2023-11-21T10:13:38;10.20;88.30
49413;DHT22;35493;50.276;9.372;2023-11-21T10:16:13;10.10;88.20
49413;DHT22;35493;50.276;9.372;2023-11-21T10:18:48;10.10;88.20
49413;DHT22;35493;50.276;9.372;2023-11-21T10:21:21;10.00;88.20
49413;DHT22;35493;50.276;9.372;2023-11-21T10:23:55;10.00;88.30
49413;DHT22;35493;50.276;9.372;2023-11-21T10:26:30;10.10;88.20
49413;DHT22;35493;50.276;9.372;2023-11-21T10:29:04;10.20;88.10
49413;DHT22;35493;50.276;9.372;2023-11-21T10:31:37;10.20;88.00
49413;DHT22;35493;50.276;9.372;2023-11-21T10:34:12;10.30;87.60
49413;DHT22;35493;50.276;9.372;2023-11-21T10:36:45;10.40;87.40
49413;DHT22;35493;50.276;9.372;2023-11-21T10:39:13;10.50;87.30
49413;DHT22;35493;50.276;9.372;2023-11-21T10:41:59;10.60;87.10
49413;DHT22;35493;50.276;9.372;2023-11-21T10:44:32;10.60;86.80
49413;DHT22;35493;50.276;9.372;2023-11-21T10:47:08;10.80;86.50
49413;DHT22;35493;50.276;9.372;2023-11-21T10:49:44;10.90;86.20
49413;DHT22;35493;50.276;9.372;2023-11-21T10:52:19;11.00;86.10
49413;DHT22;35493;50.276;9.372;2023-11-21T10:54:53;11.10;85.70
49413;DHT22;35493;50.276;9.372;2023-11-21T10:57:27;11.20;85.70
49413;DHT22;35493;50.276;9.372;2023-11-21T10:59:54;11.30;85.50
49413;DHT22;35493;50.276;9.372;2023-11-21T11:02:28;11.40;85.20
49413;DHT22;35493;50.276;9.372;2023-11-21T11:05:04;11.50;85.10
49413;DHT22;35493;50.276;9.372;2023-11-21T11:07:37;11.60;84.80
49413;DHT22;35493;50.276;9.372;2023-11-21T11:10:12;11.60;84.60
49413;DHT22;35493;50.276;9.372;2023-11-21T11:12:48;11.70;84.50
49413;DHT22;35493;50.276;9.372;2023-11-21T11:15:22;11.70;84.40
49413;DHT22;35493;50.276;9.372;2023-11-21T11:17:56;11.80;83.70
49413;DHT22;35493;50.276;9.372;2023-11-21T11:20:30;11.80;83.70
49413;DHT22;35493;50.276;9.372;2023-11-21T11:23:09;11.80;84.00
49413;DHT22;35493;50.276;9.372;2023-11-21T11:25:49;11.70;83.70
49413;DHT22;35493;50.276;9.372;2023-11-21T11:28:29;11.70;83.40
49413;DHT22;35493;50.276;9.372;2023-11-21T11:31:09;11.60;83.70
49413;DHT22;35493;50.276;9.372;2023-11-21T11:33:50;11.60;83.40
49413;DHT22;35493;50.276;9.372;2023-11-21T11:36:26;11.60;83.50
49413;DHT22;35493;50.276;9.372;2023-11-21T11:41:56;11.50;83.60
49413;DHT22;35493;50.276;9.372;2023-11-21T11:44:48;11.40;83.20
49413;DHT22;35493;50.276;9.372;2023-11-21T11:47:24;11.40;83.10
49413;DHT22;35493;50.276;9.372;2023-11-21T11:50:05;11.30;82.90
49413;DHT22;35493;50.276;9.372;2023-11-21T11:52:45;11.30;82.30
49413;DHT22;35493;50.276;9.372;2023-11-21T11:55:27;11.30;82.20
49413;DHT22;35493;50.276;9.372;2023-11-21T11:58:04;11.30;82.30
49413;DHT22;35493;50.276;9.372;2023-11-21T12:00:40;11.30;82.40
49413;DHT22;35493;50.276;9.372;2023-11-21T12:03:15;11.20;82.10
49413;DHT22;35493;50.276;9.372;2023-11-21T12:05:49;11.20;82.20
49413;DHT22;35493;50.276;9.372;2023-11-21T12:08:25;11.30;82.30
49413;DHT22;35493;50.276;9.372;2023-11-21T12:11:03;11.30;82.10
49413;DHT22;35493;50.276;9.372;2023-11-21T12:13:37;11.30;81.80
49413;DHT22;35493;50.276;9.372;2023-11-21T12:16:21;11.30;82.00
49413;DHT22;35493;50.276;9.372;2023-11-21T12:18:58;11.30;82.00
49413;DHT22;35493;50.276;9.372;2023-11-21T12:21:31;11.30;81.40
49413;DHT22;35493;50.276;9.372;2023-11-21T12:24:04;11.30;81.80
49413;DHT22;35493;50.276;9.372;2023-11-21T12:26:41;11.30;81.80
49413;DHT22;35493;50.276;9.372;2023-11-21T12:29:16;11.30;81.90
49413;DHT22;35493;50.276;9.372;2023-11-21T12:31:51;11.30;82.00
49413;DHT22;35493;50.276;9.372;2023-11-21T12:34:25;11.30;81.90
49413;DHT22;35493;50.276;9.372;2023-11-21T12:36:59;11.30;82.10
49413;DHT22;35493;50.276;9.372;2023-11-21T12:39:32;11.20;81.80
49413;DHT22;35493;50.276;9.372;2023-11-21T12:42:05;11.20;81.60
49413;DHT22;35493;50.276;9.372;2023-11-21T12:44:39;11.20;81.30
49413;DHT22;35493;50.276;9.372;2023-11-21T12:47:17;11.20;81.60
49413;DHT22;35493;50.276;9.372;2023-11-21T12:49:53;11.20;81.30
49413;DHT22;35493;50.276;9.372;2023-11-21T12:52:29;11.20;81.30
49413;DHT22;35493;50.276;9.372;2023-11-21T12:55:03;11.20;81.20
49413;DHT22;35493;50.276;9.372;2023-11-21T12:57:44;11.20;81.20
49413;DHT22;35493;50.276;9.372;2023-11-21T13:00:17;11.10;80.90
49413;DHT22;35493;50.276;9.372;2023-11-21T13:03:00;11.10;81.60
49413;DHT22;35493;50.276;9.372;2023-11-21T13:05:34;11.20;81.30
49413;DHT22;35493;50.276;9.372;2023-11-21T13:08:10;11.20;81.20
49413;DHT22;35493;50.276;9.372;2023-11-21T13:10:45;11.20;80.90
49413;DHT22;35493;50.276;9.372;2023-11-21T13:13:23;11.20;81.30
49413;DHT22;35493;50.276;9.372;2023-11-21T13:15:59;11.20;81.30
49413;DHT22;35493;50.276;9.372;2023-11-21T13:18:37;11.10;81.30
49413;DHT22;35493;50.276;9.372;2023-11-21T13:21:12;11.10;81.40
49413;DHT22;35493;50.276;9.372;2023-11-21T13:23:52;11.10;81.30
49413;DHT22;35493;50.276;9.372;2023-11-21T13:26:26;11.10;81.50
49413;DHT22;35493;50.276;9.372;2023-11-21T13:28:59;11.10;81.70
49413;DHT22;35493;50.276;9.372;2023-11-21T13:31:32;11.10;81.60
49413;DHT22;35493;50.276;9.372;2023-11-21T13:34:10;11.10;81.90
49413;DHT22;35493;50.276;9.372;2023-11-21T13:36:46;11.10;82.00
49413;DHT22;35493;50.276;9.372;2023-11-21T13:39:20;11.00;81.70
49413;DHT22;35493;50.276;9.372;2023-11-21T13:41:53;11.00;81.90
49413;DHT22;35493;50.276;9.372;2023-11-21T13:44:27;11.00;81.80
49413;DHT22;35493;50.276;9.372;2023-11-21T13:47:07;11.00;81.80
49413;DHT22;35493;50.276;9.372;2023-11-21T13:49:41;10.90;81.90
49413;DHT22;35493;50.276;9.372;2023-11-21T13:52:15;10.90;82.00
49413;DHT22;35493;50.276;9.372;2023-11-21T13:54:50;10.90;81.90
49413;DHT22;35493;50.276;9.372;2023-11-21T13:57:23;10.90;82.20
49413;DHT22;35493;50.276;9.372;2023-11-21T13:59:56;10.80;82.50
49413;DHT22;35493;50.276;9.372;2023-11-21T14:02:33;10.90;82.50
49413;DHT22;35493;50.276;9.372;2023-11-21T14:05:12;10.80;82.40
49413;DHT22;35493;50.276;9.372;2023-11-21T14:07:46;10.80;82.50
49413;DHT22;35493;50.276;9.372;2023-11-21T14:10:29;10.80;82.90
49413;DHT22;35493;50.276;9.372;2023-11-21T14:13:09;10.80;83.30
49413;DHT22;35493;50.276;9.372;2023-11-21T14:15:43;10.80;83.60
49413;DHT22;35493;50.276;9.372;2023-11-21T14:18:18;10.70;83.40
49413;DHT22;35493;50.276;9.372;2023-11-21T14:21:00;10.70;83.50
49413;DHT22;35493;50.276;9.372;2023-11-21T14:23:34;10.70;83.70
49413;DHT22;35493;50.276;9.372;2023-11-21T14:26:08;10.70;84.00
49413;DHT22;35493;50.276;9.372;2023-11-21T14:28:44;10.70;84.20
49413;DHT22;35493;50.276;9.372;2023-11-21T14:31:18;10.60;84.30
49413;DHT22;35493;50.276;9.372;2023-11-21T14:33:51;10.60;84.60
49413;DHT22;35493;50.276;9.372;2023-11-21T14:36:25;10.60;84.80
49413;DHT22;35493;50.276;9.372;2023-11-21T14:38:59;10.60;85.00
49413;DHT22;35493;50.276;9.372;2023-11-21T14:41:32;10.60;85.10
49413;DHT22;35493;50.276;9.372;2023-11-21T14:44:07;10.60;85.40
49413;DHT22;35493;50.276;9.372;2023-11-21T14:46:44;10.60;85.50
49413;DHT22;35493;50.276;9.372;2023-11-21T14:49:18;10.60;85.80
49413;DHT22;35493;50.276;9.372;2023-11-21T14:51:54;10.60;86.00
49413;DHT22;35493;50.276;9.372;2023-11-21T14:54:32;10.50;86.10
49413;DHT22;35493;50.276;9.372;2023-11-21T14:57:21;10.50;86.10
49413;DHT22;35493;50.276;9.372;2023-11-21T14:59:54;10.50;86.10
49413;DHT22;35493;50.276;9.372;2023-11-21T15:02:30;10.50;86.10
49413;DHT22;35493;50.276;9.372;2023-11-21T15:05:21;10.50;86.10
49413;DHT22;35493;50.276;9.372;2023-11-21T15:07:57;10.50;86.20
49413;DHT22;35493;50.276;9.372;2023-11-21T15:10:40;10.40;86.30
49413;DHT22;35493;50.276;9.372;2023-11-21T15:13:18;10.40;86.40
49413;DHT22;35493;50.276;9.372;2023-11-21T15:15:51;10.40;86.50
49413;DHT22;35493;50.276;9.372;2023-11-21T15:18:26;10.40;86.60
49413;DHT22;35493;50.276;9.372;2023-11-21T15:20:59;10.40;86.70
49413;DHT22;35493;50.276;9.372;2023-11-21T15:23:33;10.40;86.70
49413;DHT22;35493;50.276;9.372;2023-11-21T15:26:07;10.40;86.70
49413;DHT22;35493;50.276;9.372;2023-11-21T15:28:40;10.40;86.60
49413;DHT22;35493;50.276;9.372;2023-11-21T15:31:14;10.40;86.60
49413;DHT22;35493;50.276;9.372;2023-11-21T15:33:48;10.30;86.70
49413;DHT22;35493;50.276;9.372;2023-11-21T15:36:21;10.30;86.70
49413;DHT22;35493;50.276;9.372;2023-11-21T15:38:55;10.30;86.90
49413;DHT22;35493;50.276;9.372;2023-11-21T15:41:30;10.30;86.90
49413;DHT22;35493;50.276;9.372;2023-11-21T15:44:06;10.30;86.80
49413;DHT22;35493;50.276;9.372;2023-11-21T15:46:49;10.30;86.80
49413;DHT22;35493;50.276;9.372;2023-11-21T15:49:23;10.30;86.90
49413;DHT22;35493;50.276;9.372;2023-11-21T15:51:56;10.30;87.00
49413;DHT22;35493;50.276;9.372;2023-11-21T15:54:32;10.30;87.10
49413;DHT22;35493;50.276;9.372;2023-11-21T15:57:14;10.30;87.20
49413;DHT22;35493;50.276;9.372;2023-11-21T15:59:49;10.30;87.20
49413;DHT22;35493;50.276;9.372;2023-11-21T16:02:33;10.20;87.30
49413;DHT22;35493;50.276;9.372;2023-11-21T16:05:07;10.20;87.20
49413;DHT22;35493;50.276;9.372;2023-11-21T16:07:41;10.20;87.30
49413;DHT22;35493;50.276;9.372;2023-11-21T16:10:16;10.20;87.20
49413;DHT22;35493;50.276;9.372;2023-11-21T16:12:51;10.20;87.20
49413;DHT22;35493;50.276;9.372;2023-11-21T16:15:24;10.20;87.20
49413;DHT22;35493;50.276;9.372;2023-11-21T16:17:58;10.20;87.20
49413;DHT22;35493;50.276;9.372;2023-11-21T16:20:31;10.10;87.20
49413;DHT22;35493;50.276;9.372;2023-11-21T16:23:04;10.20;87.20
49413;DHT22;35493;50.276;9.372;2023-11-21T16:25:38;10.20;87.20
49413;DHT22;35493;50.276;9.372;2023-11-21T16:28:12;10.20;87.10
49413;DHT22;35493;50.276;9.372;2023-11-21T16:30:46;10.20;87.00
49413;DHT22;35493;50.276;9.372;2023-11-21T16:33:20;10.20;87.00
49413;DHT22;35493;50.276;9.372;2023-11-21T16:35:53;10.20;86.90
49413;DHT22;35493;50.276;9.372;2023-11-21T16:38:27;10.10;87.00